Time;durP1;ratioP1;P1;durP2;ratioP2;P2;SDS_P1;SDS_P2;PMS_P1;PMS_P2;Temp;Humidity;BMP_temperature;BMP_pressure;BME280_temperature;BME280_humidity;BME280_pressure;Samples;Min_cycle;Max_cycle;Signal;HPM_P1;HPM_P2
2021/04/07 00:02:07;0.00;0.00;0.62;0.00;0.00;0.62;2.47;1.30;;;22.10;21.50;;;;;;2233996;62;20635;-60
2021/04/07 00:04:59;0.00;0.00;0.62;0.00;0.00;0.62;1.80;0.90;;;22.10;21.50;;;;;;2233838;62;20380;-60
2021/04/07 00:07:45;0.00;0.00;0.62;0.00;0.00;0.62;1.37;0.80;;;22.10;21.50;;;;;;2233853;62;20419;-59
2021/04/07 00:10:33;0.00;0.00;0.62;0.00;0.00;0.62;1.70;0.90;;;22.10;21.50;;;;;;2233309;62;20440;-61
2021/04/07 00:13:20;0.00;0.00;0.62;0.00;0.00;0.62;1.67;0.90;;;22.10;21.50;;;;;;2233939;62;20443;-61
2021/04/07 00:16:06;0.00;0.00;0.62;0.00;0.00;0.62;1.60;0.80;;;22.10;21.60;;;;;;2236357;62;20389;-59
2021/04/07 00:18:51;0.00;0.00;0.62;0.00;0.00;0.62;1.30;0.70;;;22.10;21.60;;;;;;2233526;62;20471;-59
2021/04/07 00:21:36;0.00;0.00;0.62;0.00;0.00;0.62;1.60;0.97;;;22.10;21.60;;;;;;2233755;62;20784;-60
2021/04/07 00:24:21;0.00;0.00;0.62;0.00;0.00;0.62;2.10;0.80;;;22.10;21.60;;;;;;2234001;62;20442;-59
2021/04/07 00:27:10;0.00;0.00;0.62;0.00;0.00;0.62;1.50;0.87;;;22.10;21.70;;;;;;2233829;62;20367;-59
2021/04/07 00:29:55;0.00;0.00;0.62;0.00;0.00;0.62;1.63;0.80;;;22.10;21.60;;;;;;2233829;62;20371;-59
2021/04/07 00:32:39;0.00;0.00;0.62;0.00;0.00;0.62;1.80;0.97;;;22.10;21.50;;;;;;2233324;62;20362;-59
2021/04/07 00:35:24;0.00;0.00;0.62;0.00;0.00;0.62;1.60;0.70;;;22.10;21.50;;;;;;2233589;62;20406;-61
2021/04/07 00:38:11;0.00;0.00;0.62;0.00;0.00;0.62;5.40;1.20;;;22.10;21.40;;;;;;2234542;62;20460;-61
2021/04/07 00:40:56;0.00;0.00;0.62;0.00;0.00;0.62;1.53;0.80;;;22.00;21.30;;;;;;2234033;62;20364;-60
2021/04/07 00:43:41;0.00;0.00;0.62;0.00;0.00;0.62;1.90;0.90;;;22.10;21.30;;;;;;2234242;62;20408;-59
2021/04/07 00:46:25;0.00;0.00;0.62;0.00;0.00;0.62;2.27;0.90;;;22.00;21.10;;;;;;2234414;62;20582;-59
2021/04/07 00:49:10;0.00;0.00;0.62;0.00;0.00;0.62;1.30;0.83;;;22.00;21.10;;;;;;2234178;62;20411;-59
2021/04/07 00:51:55;0.00;0.00;0.62;0.00;0.00;0.62;2.10;1.10;;;22.00;21.00;;;;;;2234405;62;20370;-60
2021/04/07 00:54:39;0.00;0.00;0.62;0.00;0.00;0.62;2.77;1.00;;;21.90;20.90;;;;;;2233935;62;20459;-59
2021/04/07 00:57:25;0.00;0.00;0.62;0.00;0.00;0.62;1.73;0.90;;;21.90;20.90;;;;;;2234225;62;20470;-59
2021/04/07 01:00:11;0.00;0.00;0.62;0.00;0.00;0.62;1.73;0.90;;;21.80;20.90;;;;;;2234572;62;20381;-59
2021/04/07 01:02:58;0.00;0.00;0.62;0.00;0.00;0.62;2.03;1.20;;;21.80;20.80;;;;;;2233915;62;20367;-61
2021/04/07 01:05:42;0.00;0.00;0.62;0.00;0.00;0.62;1.43;0.97;;;21.80;20.70;;;;;;2234083;62;20392;-59
2021/04/07 01:08:28;0.00;0.00;0.62;0.00;0.00;0.62;5.30;1.17;;;21.70;20.60;;;;;;2234474;62;20425;-59
2021/04/07 01:11:12;0.00;0.00;0.62;0.00;0.00;0.62;3.43;1.10;;;21.70;20.60;;;;;;2234039;62;20363;-59
2021/04/07 01:13:58;0.00;0.00;0.62;0.00;0.00;0.62;2.20;1.40;;;21.60;20.50;;;;;;2234314;62;20663;-59
2021/04/07 01:16:43;0.00;0.00;0.62;0.00;0.00;0.62;2.37;1.13;;;21.60;20.40;;;;;;2233802;62;20392;-60
2021/04/07 01:19:28;0.00;0.00;0.62;0.00;0.00;0.62;2.93;1.30;;;21.50;20.40;;;;;;2236502;62;20392;-59
2021/04/07 01:22:18;0.00;0.00;0.62;0.00;0.00;0.62;2.43;1.13;;;21.50;20.30;;;;;;2234396;62;20438;-60
2021/04/07 01:25:06;0.00;0.00;0.62;0.00;0.00;0.62;2.73;1.33;;;21.50;20.30;;;;;;2233702;62;20377;-59
2021/04/07 01:27:50;0.00;0.00;0.62;0.00;0.00;0.62;2.93;0.90;;;21.40;20.30;;;;;;2234124;62;20392;-61
2021/04/07 01:30:45;0.00;0.00;0.62;0.00;0.00;0.62;3.20;1.23;;;21.40;20.30;;;;;;2234300;62;20415;-59
2021/04/07 01:33:30;0.00;0.00;0.62;0.00;0.00;0.62;2.70;1.13;;;21.30;20.20;;;;;;2234185;62;20772;-63
2021/04/07 01:36:15;0.00;0.00;0.62;0.00;0.00;0.62;2.67;1.10;;;21.30;20.20;;;;;;2234086;62;20431;-60
2021/04/07 01:38:59;0.00;0.00;0.62;0.00;0.00;0.62;2.17;1.20;;;21.20;20.20;;;;;;2233644;62;20383;-61
2021/04/07 01:41:46;0.00;0.00;0.62;0.00;0.00;0.62;3.53;1.17;;;21.20;20.20;;;;;;2234188;62;20416;-61
2021/04/07 01:44:33;0.00;0.00;0.62;0.00;0.00;0.62;3.80;1.40;;;21.20;20.20;;;;;;2234421;62;20372;-59
2021/04/07 01:47:17;0.00;0.00;0.62;0.00;0.00;0.62;2.17;1.00;;;21.10;20.20;;;;;;2233213;62;20810;-58
2021/04/07 01:50:05;0.00;0.00;0.62;0.00;0.00;0.62;2.13;1.00;;;21.10;20.20;;;;;;2234130;62;20408;-61
2021/04/07 01:52:50;0.00;0.00;0.62;0.00;0.00;0.62;2.57;0.90;;;21.10;20.20;;;;;;2234371;62;20368;-58
2021/04/07 01:55:35;0.00;0.00;0.62;0.00;0.00;0.62;1.63;1.00;;;21.10;20.20;;;;;;2233836;62;20388;-63
2021/04/07 01:58:20;0.00;0.00;0.62;0.00;0.00;0.62;3.20;1.43;;;21.00;20.10;;;;;;2234233;62;20395;-60
2021/04/07 02:01:05;0.00;0.00;0.62;0.00;0.00;0.62;2.80;1.30;;;21.00;20.10;;;;;;2233963;62;20420;-61
2021/04/07 02:03:50;0.00;0.00;0.62;0.00;0.00;0.62;2.40;1.17;;;20.90;20.00;;;;;;2234081;62;20654;-59
2021/04/07 02:06:34;0.00;0.00;0.62;0.00;0.00;0.62;2.63;1.30;;;20.90;20.00;;;;;;2233704;62;20442;-59
2021/04/07 02:09:20;0.00;0.00;0.62;0.00;0.00;0.62;2.07;1.37;;;20.90;20.00;;;;;;2233546;62;20444;-61
2021/04/07 02:12:05;0.00;0.00;0.62;0.00;0.00;0.62;4.53;1.53;;;20.80;19.90;;;;;;2233613;62;20585;-61
2021/04/07 02:14:51;0.00;0.00;0.62;0.00;0.00;0.62;3.10;1.33;;;20.80;19.90;;;;;;2234280;62;20395;-61
2021/04/07 02:17:35;0.00;0.00;0.62;0.00;0.00;0.62;1.70;0.93;;;20.80;20.00;;;;;;2233488;62;20458;-61
2021/04/07 02:20:20;0.00;0.00;0.62;0.00;0.00;0.62;4.53;1.40;;;20.70;19.90;;;;;;2234013;62;20403;-61
2021/04/07 02:23:05;0.00;0.00;0.62;0.00;0.00;0.62;3.80;1.77;;;20.70;19.90;;;;;;2233868;62;20409;-61
2021/04/07 02:25:49;0.00;0.00;0.62;0.00;0.00;0.62;1.80;1.10;;;20.70;19.90;;;;;;2233943;62;20366;-61
2021/04/07 02:28:35;0.00;0.00;0.62;0.00;0.00;0.62;2.60;1.20;;;20.60;19.80;;;;;;2236494;62;20388;-60
2021/04/07 02:31:20;0.00;0.00;0.62;0.00;0.00;0.62;2.07;1.00;;;20.60;19.90;;;;;;2233483;62;20600;-60
2021/04/07 02:34:05;0.00;0.00;0.62;0.00;0.00;0.62;3.73;1.53;;;20.60;19.90;;;;;;2233932;62;20359;-60
2021/04/07 02:36:49;0.00;0.00;0.62;0.00;0.00;0.62;3.50;1.27;;;20.50;19.80;;;;;;2234086;62;20611;-60
2021/04/07 02:39:34;0.00;0.00;0.62;0.00;0.00;0.62;2.50;1.10;;;20.50;19.80;;;;;;2257093;62;20435;-61
2021/04/07 02:42:21;0.00;0.00;0.62;0.00;0.00;0.62;2.57;1.27;;;20.50;19.80;;;;;;2233987;62;20379;-61
2021/04/07 02:45:08;0.00;0.00;0.62;0.00;0.00;0.62;1.93;1.40;;;20.50;19.80;;;;;;2233739;62;20390;-61
2021/04/07 02:47:54;0.00;0.00;0.62;0.00;0.00;0.62;2.63;1.20;;;20.40;19.80;;;;;;2233679;62;20634;-61
2021/04/07 02:50:38;0.00;0.00;0.62;0.00;0.00;0.62;3.77;1.40;;;20.40;19.80;;;;;;2234085;62;20486;-62
2021/04/07 02:53:23;0.00;0.00;0.62;0.00;0.00;0.62;2.60;1.30;;;20.40;19.80;;;;;;2233473;62;20390;-60
2021/04/07 02:56:07;0.00;0.00;0.62;0.00;0.00;0.62;3.37;1.70;;;20.30;19.80;;;;;;2233654;62;20387;-61
2021/04/07 02:58:52;0.00;0.00;0.62;0.00;0.00;0.62;3.10;1.20;;;20.30;19.80;;;;;;2234013;62;20391;-61
2021/04/07 03:01:36;0.00;0.00;0.62;0.00;0.00;0.62;2.67;1.30;;;20.30;19.80;;;;;;2233532;62;20406;-61
2021/04/07 03:04:21;0.00;0.00;0.62;0.00;0.00;0.62;1.93;1.20;;;20.30;19.80;;;;;;2233821;62;20383;-64
2021/04/07 03:06:47;0.00;0.00;0.62;0.00;0.00;0.62;2.63;1.57;;;20.20;19.70;;;;;;2233949;62;20355;-60
2021/04/07 03:09:14;0.00;0.00;0.62;0.00;0.00;0.62;1.93;1.10;;;20.20;19.80;;;;;;2233326;62;20873;-61
2021/04/07 03:11:40;0.00;0.00;0.62;0.00;0.00;0.62;1.83;1.30;;;20.20;19.80;;;;;;2233936;62;20359;-60
2021/04/07 03:14:06;0.00;0.00;0.62;0.00;0.00;0.62;3.73;1.17;;;20.20;19.80;;;;;;2234137;62;20358;-61
2021/04/07 03:16:33;0.00;0.00;0.62;0.00;0.00;0.62;3.00;1.27;;;20.20;19.80;;;;;;2233291;62;20395;-61
2021/04/07 03:18:59;0.00;0.00;0.62;0.00;0.00;0.62;2.37;1.60;;;20.20;19.80;;;;;;2233682;62;20635;-60
2021/04/07 03:21:26;0.00;0.00;0.62;0.00;0.00;0.62;2.93;1.50;;;20.20;19.80;;;;;;2234183;62;20583;-61
2021/04/07 03:23:52;0.00;0.00;0.62;0.00;0.00;0.62;2.77;1.40;;;20.20;19.80;;;;;;2233451;62;20403;-60
2021/04/07 03:26:19;0.00;0.00;0.62;0.00;0.00;0.62;1.50;1.10;;;20.10;19.70;;;;;;2233707;62;20349;-60
2021/04/07 03:28:45;0.00;0.00;0.62;0.00;0.00;0.62;3.00;1.57;;;20.10;19.70;;;;;;2233990;62;20451;-60
2021/04/07 03:31:11;0.00;0.00;0.62;0.00;0.00;0.62;2.07;1.30;;;20.10;19.70;;;;;;2232768;62;20357;-60
2021/04/07 03:33:37;0.00;0.00;0.62;0.00;0.00;0.62;2.30;1.53;;;20.10;19.70;;;;;;2233775;62;20379;-61
2021/04/07 03:36:06;0.00;0.00;0.62;0.00;0.00;0.62;3.37;1.83;;;20.10;20.30;;;;;;2233906;62;20379;-61
2021/04/07 03:38:33;0.00;0.00;0.62;0.00;0.00;0.62;3.00;1.57;;;20.10;19.70;;;;;;2233346;62;20580;-61
2021/04/07 03:41:00;0.00;0.00;0.62;0.00;0.00;0.62;2.40;1.30;;;20.00;19.60;;;;;;2233777;62;20420;-61
2021/04/07 03:43:26;0.00;0.00;0.62;0.00;0.00;0.62;4.10;1.73;;;20.00;19.70;;;;;;2233932;62;20364;-61
2021/04/07 03:45:55;0.00;0.00;0.62;0.00;0.00;0.62;2.87;1.53;;;20.00;19.70;;;;;;2233123;62;20351;-61
2021/04/07 03:48:23;0.00;0.00;0.62;0.00;0.00;0.62;1.60;1.10;;;20.00;19.70;;;;;;2233695;62;20618;-61
2021/04/07 03:50:50;0.00;0.00;0.62;0.00;0.00;0.62;2.13;1.20;;;20.00;19.70;;;;;;2233845;62;20378;-60
2021/04/07 03:53:18;0.00;0.00;0.62;0.00;0.00;0.62;3.70;1.40;;;20.00;19.70;;;;;;2233384;62;20363;-61
2021/04/07 03:55:46;0.00;0.00;0.62;0.00;0.00;0.62;4.47;1.50;;;19.90;19.50;;;;;;2233526;62;20383;-61
2021/04/07 03:58:31;0.00;0.00;0.62;0.00;0.00;0.62;5.37;1.70;;;19.90;19.50;;;;;;2233819;62;20438;-60
2021/04/07 04:01:15;0.00;0.00;0.62;0.00;0.00;0.62;3.90;1.30;;;19.90;19.50;;;;;;2233332;62;20364;-59
2021/04/07 04:04:00;0.00;0.00;0.62;0.00;0.00;0.62;2.70;1.40;;;19.80;19.40;;;;;;2233354;62;20374;-59
2021/04/07 04:06:48;0.00;0.00;0.62;0.00;0.00;0.62;2.93;1.40;;;19.80;19.50;;;;;;2233314;62;20403;-59
2021/04/07 04:09:32;0.00;0.00;0.62;0.00;0.00;0.62;3.37;1.60;;;19.80;19.50;;;;;;2233656;62;20733;-59
2021/04/07 04:12:18;0.00;0.00;0.62;0.00;0.00;0.62;3.47;1.80;;;19.80;19.50;;;;;;2234640;62;20577;-59
2021/04/07 04:15:04;0.00;0.00;0.62;0.00;0.00;0.62;4.40;1.37;;;19.70;19.50;;;;;;2233931;62;20392;-59
2021/04/07 04:17:49;0.00;0.00;0.62;0.00;0.00;0.62;3.50;1.60;;;19.70;19.50;;;;;;2234223;62;20389;-59
2021/04/07 04:20:34;0.00;0.00;0.62;0.00;0.00;0.62;3.00;1.70;;;19.70;19.50;;;;;;2234560;62;20413;-59
2021/04/07 04:23:19;0.00;0.00;0.62;0.00;0.00;0.62;2.43;1.50;;;19.70;19.50;;;;;;2233910;62;20396;-59
2021/04/07 04:26:03;0.00;0.00;0.62;0.00;0.00;0.62;3.80;1.80;;;19.60;19.40;;;;;;2234352;62;20462;-60
2021/04/07 04:28:49;0.00;0.00;0.62;0.00;0.00;0.62;2.63;1.70;;;19.60;19.40;;;;;;2234251;62;20467;-59
2021/04/07 04:31:33;0.00;0.00;0.62;0.00;0.00;0.62;3.63;2.17;;;19.60;19.50;;;;;;2234118;62;20450;-61
2021/04/07 04:34:17;0.00;0.00;0.62;0.00;0.00;0.62;5.17;1.70;;;19.60;19.50;;;;;;2234578;62;20402;-60
2021/04/07 04:37:02;0.00;0.00;0.62;0.00;0.00;0.62;2.33;1.30;;;19.50;19.40;;;;;;2233408;62;20465;-60
2021/04/07 04:39:47;0.00;0.00;0.62;0.00;0.00;0.62;6.00;1.57;;;19.50;19.40;;;;;;2234576;62;20727;-61
2021/04/07 04:42:31;0.00;0.00;0.62;0.00;0.00;0.62;2.90;1.90;;;19.50;19.40;;;;;;2234646;62;20370;-60
2021/04/07 04:45:17;0.00;0.00;0.62;0.00;0.00;0.62;3.60;1.50;;;19.40;19.30;;;;;;2233407;62;20370;-60
2021/04/07 04:48:03;0.00;0.00;0.62;0.00;0.00;0.62;4.30;1.90;;;19.40;19.30;;;;;;2234072;62;20526;-60
2021/04/07 04:50:48;0.00;0.00;0.62;0.00;0.00;0.62;3.93;1.80;;;19.40;19.40;;;;;;2234207;62;20364;-60
2021/04/07 04:53:32;0.00;0.00;0.62;0.00;0.00;0.62;5.50;1.90;;;19.30;19.30;;;;;;2234162;62;20373;-61
2021/04/07 04:56:17;0.00;0.00;0.62;0.00;0.00;0.62;2.83;1.30;;;19.30;19.30;;;;;;2234313;62;20492;-56
2021/04/07 04:59:01;0.00;0.00;0.62;0.00;0.00;0.62;3.57;2.20;;;19.30;19.40;;;;;;2233699;62;20390;-60
2021/04/07 05:01:47;0.00;0.00;0.62;0.00;0.00;0.62;4.60;2.00;;;19.30;19.30;;;;;;2234314;62;20638;-59
2021/04/07 05:04:31;0.00;0.00;0.62;0.00;0.00;0.62;2.37;1.70;;;19.30;19.30;;;;;;2234473;62;20446;-58
2021/04/07 05:07:16;0.00;0.00;0.62;0.00;0.00;0.62;3.80;1.80;;;19.20;19.20;;;;;;2233598;62;20638;-58
2021/04/07 05:10:00;0.00;0.00;0.62;0.00;0.00;0.62;3.03;1.30;;;19.20;19.20;;;;;;2234040;62;20408;-56
2021/04/07 05:12:45;0.00;0.00;0.62;0.00;0.00;0.62;2.57;1.43;;;19.20;19.30;;;;;;2234501;62;20366;-59
2021/04/07 05:15:29;0.00;0.00;0.62;0.00;0.00;0.62;3.33;1.60;;;19.10;19.30;;;;;;2234005;62;20610;-59
2021/04/07 05:18:17;0.00;0.00;0.62;0.00;0.00;0.62;5.63;1.70;;;19.10;19.30;;;;;;2234137;62;20428;-55
2021/04/07 05:21:01;0.00;0.00;0.62;0.00;0.00;0.62;3.60;1.70;;;19.10;19.30;;;;;;2233763;62;20374;-55
2021/04/07 05:23:46;0.00;0.00;0.62;0.00;0.00;0.62;3.23;1.70;;;19.10;19.40;;;;;;2234041;62;20365;-55
2021/04/07 05:26:30;0.00;0.00;0.62;0.00;0.00;0.62;3.33;1.70;;;19.10;19.40;;;;;;2234311;62;20598;-58
2021/04/07 05:29:15;0.00;0.00;0.62;0.00;0.00;0.62;3.70;1.70;;;19.00;19.30;;;;;;2233701;62;20778;-59
2021/04/07 05:32:00;0.00;0.00;0.62;0.00;0.00;0.62;5.40;2.30;;;19.00;19.30;;;;;;2233756;62;20418;-59
2021/04/07 05:34:46;0.00;0.00;0.62;0.00;0.00;0.62;3.40;1.30;;;19.00;19.20;;;;;;2234473;62;20384;-57
2021/04/07 05:37:31;0.00;0.00;0.62;0.00;0.00;0.62;5.77;1.70;;;19.00;19.20;;;;;;2233485;62;20397;-58
2021/04/07 05:40:15;0.00;0.00;0.62;0.00;0.00;0.62;2.80;2.13;;;18.90;19.10;;;;;;2234281;62;20413;-58
2021/04/07 05:43:01;0.00;0.00;0.62;0.00;0.00;0.62;3.00;1.57;;;18.90;19.20;;;;;;2233942;62;20483;-59
2021/04/07 05:45:47;0.00;0.00;0.62;0.00;0.00;0.62;4.27;1.97;;;18.90;19.30;;;;;;2233974;62;20436;-58
2021/04/07 05:48:32;0.00;0.00;0.62;0.00;0.00;0.62;3.40;1.77;;;18.80;19.30;;;;;;2234284;62;20403;-59
2021/04/07 05:51:17;0.00;0.00;0.62;0.00;0.00;0.62;5.07;1.80;;;18.80;19.30;;;;;;2233143;62;20702;-59
2021/04/07 05:54:02;0.00;0.00;0.62;0.00;0.00;0.62;3.97;1.70;;;18.80;19.30;;;;;;2234157;62;20640;-57
2021/04/07 05:56:47;0.00;0.00;0.62;0.00;0.00;0.62;3.00;1.37;;;18.80;19.40;;;;;;2234267;62;20395;-58
2021/04/07 05:59:31;0.00;0.00;0.62;0.00;0.00;0.62;2.10;1.70;;;18.80;19.50;;;;;;2233703;62;20391;-59
2021/04/07 06:02:16;0.00;0.00;0.62;0.00;0.00;0.62;3.77;1.93;;;18.80;19.50;;;;;;2234179;62;20713;-58
2021/04/07 06:05:01;0.00;0.00;0.62;0.00;0.00;0.62;3.27;1.87;;;18.80;19.50;;;;;;2233846;62;20518;-59
2021/04/07 06:07:46;0.00;0.00;0.62;0.00;0.00;0.62;4.20;1.47;;;18.80;19.50;;;;;;2233889;62;20407;-58
2021/04/07 06:10:33;0.00;0.00;0.62;0.00;0.00;0.62;3.20;1.40;;;18.90;19.60;;;;;;2233081;62;20390;-58
2021/04/07 06:13:18;0.00;0.00;0.62;0.00;0.00;0.62;2.47;1.37;;;18.90;19.50;;;;;;2234071;62;20589;-58
2021/04/07 06:16:03;0.00;0.00;0.62;0.00;0.00;0.62;2.47;1.27;;;18.90;19.60;;;;;;2233929;62;20433;-60
2021/04/07 06:18:48;0.00;0.00;0.62;0.00;0.00;0.62;5.00;1.20;;;18.90;19.60;;;;;;2234004;62;20801;-60
2021/04/07 06:21:32;0.00;0.00;0.62;0.00;0.00;0.62;3.73;1.40;;;18.90;19.60;;;;;;2233877;62;20452;-57
2021/04/07 06:24:18;0.00;0.00;0.62;0.00;0.00;0.62;5.97;1.50;;;18.90;19.60;;;;;;2233759;62;20380;-59
2021/04/07 06:27:02;0.00;0.00;0.62;0.00;0.00;0.62;2.07;1.20;;;19.00;19.60;;;;;;2233911;62;20367;-58
2021/04/07 06:29:47;0.00;0.00;0.62;0.00;0.00;0.62;5.33;2.07;;;19.00;19.60;;;;;;2233735;62;20373;-58
2021/04/07 06:32:32;0.00;0.00;0.62;0.00;0.00;0.62;2.47;1.20;;;19.00;19.60;;;;;;2233894;62;20409;-59
2021/04/07 06:35:16;0.00;0.00;0.62;0.00;0.00;0.62;2.00;1.10;;;19.00;19.60;;;;;;2233229;62;20817;-58
2021/04/07 06:38:01;0.00;0.00;0.62;0.00;0.00;0.62;2.60;1.60;;;19.00;19.60;;;;;;2233616;62;20751;-58
2021/04/07 06:40:47;0.00;0.00;0.62;0.00;0.00;0.62;2.17;1.40;;;19.10;19.70;;;;;;2234223;62;20371;-58
2021/04/07 06:43:33;0.00;0.00;0.62;0.00;0.00;0.62;1.70;1.00;;;19.10;19.70;;;;;;2233715;62;20370;-58
2021/04/07 06:46:20;0.00;0.00;0.62;0.00;0.00;0.62;1.87;1.10;;;19.10;19.70;;;;;;2233591;62;20366;-58
2021/04/07 06:49:05;0.00;0.00;0.62;0.00;0.00;0.62;2.13;1.10;;;19.10;19.70;;;;;;2233864;62;20394;-59
2021/04/07 06:51:52;0.00;0.00;0.62;0.00;0.00;0.62;1.60;0.97;;;19.10;19.70;;;;;;2233629;62;20496;-59
2021/04/07 06:54:38;0.00;0.00;0.62;0.00;0.00;0.62;2.80;1.63;;;19.10;19.70;;;;;;2233891;62;20385;-58
2021/04/07 06:57:23;0.00;0.00;0.62;0.00;0.00;0.62;2.53;1.30;;;19.20;19.70;;;;;;2233575;62;20464;-58
2021/04/07 07:00:10;0.00;0.00;0.62;0.00;0.00;0.62;2.10;0.90;;;19.20;19.70;;;;;;2233735;62;20372;-60
2021/04/07 07:03:00;0.00;0.00;0.62;0.00;0.00;0.62;2.23;1.00;;;19.20;19.70;;;;;;2233953;62;20422;-58
2021/04/07 07:05:47;0.00;0.00;0.62;0.00;0.00;0.62;2.50;1.30;;;19.20;19.70;;;;;;2233559;62;20363;-58
2021/04/07 07:08:32;0.00;0.00;0.62;0.00;0.00;0.62;1.67;1.00;;;19.20;19.70;;;;;;2233647;62;20615;-58
2021/04/07 07:11:18;0.00;0.00;0.62;0.00;0.00;0.62;1.90;1.10;;;19.20;19.70;;;;;;2233928;62;20367;-60
2021/04/07 07:14:03;0.00;0.00;0.62;0.00;0.00;0.62;2.33;1.30;;;19.30;19.80;;;;;;2233665;62;20365;-59
2021/04/07 07:16:50;0.00;0.00;0.62;0.00;0.00;0.62;1.33;0.90;;;19.30;19.80;;;;;;2233780;62;20474;-58
2021/04/07 07:19:35;0.00;0.00;0.62;0.00;0.00;0.62;3.20;1.03;;;19.30;19.80;;;;;;2233584;62;20729;-57
2021/04/07 07:22:22;0.00;0.00;0.62;0.00;0.00;0.62;2.90;1.20;;;19.30;19.80;;;;;;2233521;62;20440;-59
2021/04/07 07:25:08;0.00;0.00;0.62;0.00;0.00;0.62;1.30;1.00;;;19.30;19.80;;;;;;2233963;62;20366;-58
2021/04/07 07:27:59;0.00;0.00;0.62;0.00;0.00;0.62;3.03;1.00;;;19.30;19.80;;;;;;2233400;62;20391;-58
2021/04/07 07:30:45;0.00;0.00;0.62;0.00;0.00;0.62;2.07;1.43;;;19.30;19.80;;;;;;2233540;62;20367;-58
2021/04/07 07:33:32;0.00;0.00;0.62;0.00;0.00;0.62;1.70;0.90;;;19.30;19.80;;;;;;2233960;62;20370;-58
2021/04/07 07:36:17;0.00;0.00;0.62;0.00;0.00;0.62;1.30;0.93;;;19.30;19.80;;;;;;2233330;62;20394;-57
2021/04/07 07:39:05;0.00;0.00;0.62;0.00;0.00;0.62;1.43;0.70;;;19.40;19.80;;;;;;2233847;62;20383;-60
2021/04/07 07:41:51;0.00;0.00;0.62;0.00;0.00;0.62;2.73;0.97;;;19.40;19.80;;;;;;2233507;62;20739;-59
2021/04/07 07:44:38;0.00;0.00;0.62;0.00;0.00;0.62;1.47;0.93;;;19.40;19.80;;;;;;2233537;62;20368;-58
2021/04/07 07:47:33;0.00;0.00;0.62;0.00;0.00;0.62;2.20;1.20;;;19.40;19.80;;;;;;2233752;62;20417;-58
2021/04/07 07:50:17;0.00;0.00;0.62;0.00;0.00;0.62;1.50;0.90;;;19.40;19.80;;;;;;2232941;62;20390;-61
2021/04/07 07:53:16;0.00;0.00;0.62;0.00;0.00;0.62;1.40;0.90;;;19.40;19.80;;;;;;2233581;62;20379;-59
2021/04/07 07:56:00;0.00;0.00;0.62;0.00;0.00;0.62;2.93;0.90;;;19.40;19.80;;;;;;2233813;62;20393;-60
2021/04/07 07:58:47;0.00;0.00;0.62;0.00;0.00;0.62;1.50;0.87;;;19.40;19.80;;;;;;2233363;62;20447;-59
2021/04/07 08:01:41;0.00;0.00;0.62;0.00;0.00;0.62;1.40;0.80;;;19.40;19.80;;;;;;2233844;62;20406;-59
2021/04/07 08:04:27;0.00;0.00;0.62;0.00;0.00;0.62;2.70;1.30;;;19.50;19.90;;;;;;2233462;62;20404;-59
2021/04/07 08:07:14;0.00;0.00;0.62;0.00;0.00;0.62;2.33;1.00;;;19.50;19.90;;;;;;2233431;62;20739;-59
2021/04/07 08:09:58;0.00;0.00;0.62;0.00;0.00;0.62;1.53;0.70;;;19.50;19.90;;;;;;2233665;62;20367;-59
2021/04/07 08:12:44;0.00;0.00;0.62;0.00;0.00;0.62;1.60;0.90;;;19.50;19.80;;;;;;2233389;62;20400;-59
2021/04/07 08:15:30;0.00;0.00;0.62;0.00;0.00;0.62;1.63;0.90;;;19.50;19.90;;;;;;2233548;62;20389;-59
2021/04/07 08:18:16;0.00;0.00;0.62;0.00;0.00;0.62;2.57;1.00;;;19.60;19.90;;;;;;2233639;62;20497;-59
2021/04/07 08:21:03;0.00;0.00;0.62;0.00;0.00;0.62;1.87;1.00;;;19.50;20.40;;;;;;2233451;62;20377;-59
2021/04/07 08:23:55;0.00;0.00;0.62;0.00;0.00;0.62;1.73;0.97;;;19.60;19.90;;;;;;2233677;62;20381;-59
2021/04/07 08:26:42;0.00;0.00;0.62;0.00;0.00;0.62;2.00;1.00;;;19.60;19.90;;;;;;2233294;62;20791;-60
2021/04/07 08:29:26;0.00;0.00;0.62;0.00;0.00;0.62;2.07;1.00;;;19.60;19.90;;;;;;2233031;62;20359;-59
2021/04/07 08:32:11;0.00;0.00;0.62;0.00;0.00;0.62;1.40;0.80;;;19.60;19.90;;;;;;2233669;62;20604;-59
2021/04/07 08:34:56;0.00;0.00;0.62;0.00;0.00;0.62;2.27;1.00;;;19.60;19.80;;;;;;2233408;62;20582;-59
2021/04/07 08:37:41;0.00;0.00;0.62;0.00;0.00;0.62;1.40;0.80;;;19.60;19.80;;;;;;2233255;62;20386;-59
2021/04/07 08:40:39;0.00;0.00;0.62;0.00;0.00;0.62;1.33;0.80;;;19.60;19.80;;;;;;2233697;62;20383;-59
2021/04/07 08:43:28;0.00;0.00;0.62;0.00;0.00;0.62;1.90;1.10;;;19.60;19.80;;;;;;2233466;62;20625;-59
2021/04/07 08:46:14;0.00;0.00;0.62;0.00;0.00;0.62;1.50;1.07;;;19.60;19.80;;;;;;2233555;62;20407;-59
2021/04/07 08:49:00;0.00;0.00;0.62;0.00;0.00;0.62;1.50;0.83;;;19.60;19.80;;;;;;2233264;62;20683;-59
2021/04/07 08:51:45;0.00;0.00;0.62;0.00;0.00;0.62;3.33;1.27;;;19.70;19.90;;;;;;2233342;62;20730;-59
2021/04/07 08:54:44;0.00;0.00;0.62;0.00;0.00;0.62;1.80;1.20;;;19.70;19.90;;;;;;2235959;62;20423;-59
2021/04/07 08:57:34;0.00;0.00;0.62;0.00;0.00;0.62;2.00;1.10;;;19.70;19.90;;;;;;2233647;62;20386;-59
2021/04/07 09:00:24;0.00;0.00;0.62;0.00;0.00;0.62;1.70;1.07;;;19.70;19.90;;;;;;2234240;62;20624;-59
2021/04/07 09:03:11;0.00;0.00;0.62;0.00;0.00;0.62;1.30;0.70;;;19.70;19.90;;;;;;2236351;62;20426;-59
2021/04/07 09:05:55;0.00;0.00;0.62;0.00;0.00;0.62;1.63;1.00;;;19.70;19.90;;;;;;2233884;62;20366;-59
2021/04/07 09:08:52;0.00;0.00;0.62;0.00;0.00;0.62;1.57;1.00;;;19.70;19.90;;;;;;2234301;62;20385;-59
2021/04/07 09:11:42;0.00;0.00;0.62;0.00;0.00;0.62;1.30;0.83;;;19.70;19.90;;;;;;2234052;62;20452;-59
2021/04/07 09:14:28;0.00;0.00;0.62;0.00;0.00;0.62;1.20;0.70;;;19.80;19.90;;;;;;2234066;62;20585;-59
2021/04/07 09:17:13;0.00;0.00;0.62;0.00;0.00;0.62;2.83;0.80;;;19.80;19.90;;;;;;2234085;62;20394;-59
2021/04/07 09:19:57;0.00;0.00;0.62;0.00;0.00;0.62;1.30;0.80;;;19.80;19.90;;;;;;2233550;62;20729;-59
2021/04/07 09:22:46;0.00;0.00;0.62;0.00;0.00;0.62;1.63;0.93;;;19.80;19.90;;;;;;2234275;62;20375;-59
2021/04/07 09:25:31;0.00;0.00;0.62;0.00;0.00;0.62;1.90;1.10;;;19.80;19.90;;;;;;2233943;62;20354;-59
2021/04/07 09:28:17;0.00;0.00;0.62;0.00;0.00;0.62;2.43;1.33;;;19.80;19.90;;;;;;2233909;62;20422;-59
2021/04/07 09:31:16;0.00;0.00;0.62;0.00;0.00;0.62;2.80;1.40;;;19.80;19.90;;;;;;2234127;62;20730;-59
2021/04/07 09:34:01;0.00;0.00;0.62;0.00;0.00;0.62;3.00;1.60;;;19.80;19.90;;;;;;2233902;62;20366;-60
2021/04/07 09:36:47;0.00;0.00;0.62;0.00;0.00;0.62;3.30;1.43;;;19.80;19.90;;;;;;2233849;62;20390;-59
2021/04/07 09:39:32;0.00;0.00;0.62;0.00;0.00;0.62;2.13;1.33;;;19.80;19.90;;;;;;2234285;62;20356;-59
2021/04/07 09:42:17;0.00;0.00;0.62;0.00;0.00;0.62;2.47;1.40;;;19.80;19.80;;;;;;2233781;62;20368;-59
2021/04/07 09:45:02;0.00;0.00;0.62;0.00;0.00;0.62;2.03;1.20;;;19.80;19.90;;;;;;2236656;62;20370;-58
2021/04/07 09:47:54;0.00;0.00;0.62;0.00;0.00;0.62;3.40;1.77;;;19.80;19.90;;;;;;2233710;62;20403;-59
2021/04/07 09:50:39;0.00;0.00;0.62;0.00;0.00;0.62;2.07;1.53;;;19.80;19.80;;;;;;2233751;62;20728;-58
2021/04/07 09:53:27;0.00;0.00;0.62;0.00;0.00;0.62;2.50;1.80;;;19.90;19.90;;;;;;2234365;62;20399;-58
2021/04/07 09:56:13;0.00;0.00;0.62;0.00;0.00;0.62;2.90;1.60;;;19.80;19.90;;;;;;2233596;62;20389;-58
2021/04/07 09:58:58;0.00;0.00;0.62;0.00;0.00;0.62;1.70;1.37;;;19.90;19.90;;;;;;2233752;62;20381;-60
2021/04/07 10:01:44;0.00;0.00;0.62;0.00;0.00;0.62;2.00;1.37;;;19.90;19.90;;;;;;2234175;62;20359;-59
2021/04/07 10:04:30;0.00;0.00;0.62;0.00;0.00;0.62;2.60;1.27;;;19.80;19.80;;;;;;2233841;62;20365;-60
2021/04/07 10:07:17;0.00;0.00;0.62;0.00;0.00;0.62;2.40;1.50;;;19.90;19.90;;;;;;2233957;62;20368;-59
2021/04/07 10:10:02;0.00;0.00;0.62;0.00;0.00;0.62;2.30;1.53;;;19.90;19.90;;;;;;2233526;62;20382;-59
2021/04/07 10:12:47;0.00;0.00;0.62;0.00;0.00;0.62;2.40;1.83;;;19.90;19.90;;;;;;2233883;62;20434;-59
2021/04/07 10:15:31;0.00;0.00;0.62;0.00;0.00;0.62;3.33;1.30;;;19.90;19.90;;;;;;2234039;62;20438;-59
2021/04/07 10:18:18;0.00;0.00;0.62;0.00;0.00;0.62;1.93;1.40;;;19.90;19.90;;;;;;2233686;62;20390;-57
2021/04/07 10:21:13;0.00;0.00;0.62;0.00;0.00;0.62;1.70;1.20;;;19.90;19.90;;;;;;2236182;62;20739;-59
2021/04/07 10:23:59;0.00;0.00;0.62;0.00;0.00;0.62;3.20;1.53;;;19.90;19.90;;;;;;2234036;62;20762;-58
2021/04/07 10:26:44;0.00;0.00;0.62;0.00;0.00;0.62;1.70;1.30;;;19.90;19.90;;;;;;2233914;62;20426;-58
2021/04/07 10:29:30;0.00;0.00;0.62;0.00;0.00;0.62;1.87;1.43;;;19.90;19.90;;;;;;2234089;62;20375;-59
2021/04/07 10:32:18;0.00;0.00;0.62;0.00;0.00;0.62;2.17;1.37;;;19.90;19.90;;;;;;2233628;62;20370;-58
2021/04/07 10:35:05;0.00;0.00;0.62;0.00;0.00;0.62;1.30;1.07;;;19.90;19.90;;;;;;2233820;62;20402;-59
2021/04/07 10:37:54;0.00;0.00;0.62;0.00;0.00;0.62;1.80;1.03;;;19.90;19.90;;;;;;2233889;62;20470;-59
2021/04/07 10:40:41;0.00;0.00;0.62;0.00;0.00;0.62;4.40;1.40;;;19.90;19.90;;;;;;2233710;62;20494;-59
2021/04/07 10:43:32;0.00;0.00;0.62;0.00;0.00;0.62;1.67;1.37;;;20.00;20.00;;;;;;2233452;62;20387;-59
2021/04/07 10:46:29;0.00;0.00;0.62;0.00;0.00;0.62;2.00;1.60;;;19.90;19.90;;;;;;2234019;62;20372;-59
2021/04/07 10:49:14;0.00;0.00;0.62;0.00;0.00;0.62;2.63;1.20;;;19.90;19.90;;;;;;2233362;62;20397;-59